Skip Navigation Links
NOAA logo - Click to go to the NOAA homepage
NOAA's National Weather Service
Alaska Aviation Weather Unit
  NWS logo - Click to go to the NWS homepage
Left Navbar Graphic     19 AKDT = 03 GMT

   
NOAA is celebrating 200 years of science, service, and stewardship. Visit the NOAA 200th celebration Web site to learn more.
USA.gov is the U.S. Government's official Web portal to all Federal, state and local government Web resources and services.
Facebook
NWS on Facebook

Important Change Regarding the AAWU Web Presence

 

Over the last several months, the AAWU has been working to navigate its webpages to a nationally supported server. Security, as well as other needs, have necessitated the change.  In the process, we have made an effort to enhance the functionality of our website, as well as some of our products. As of June 20, 2017, aawu.arh.noaa.gov will be discontinued. The new AAWU web address is weather.gov/aawu. It is now live and will run in-parallel with the old site until it is discontinued. Please send any feedback or questions regarding the new webpages to nws.ar.aawu.webauthors@noaa.gov.  Thank you for your patience during this time of transition.
AAWU Home :: Display TAF Add Bookmark
METAR PAKH 242156Z AUTO 24015G22KT BKN006 OVC011 08/07 A3006 RMK AO2
 SLP179 T00830067 PWINO $=

SPECI PAKH 242228Z AUTO 26018KT SCT008 OVC014 08/06 A3007 RMK AO2
 PWINO $=

SPECI PAKH 242251Z AUTO 25017KT OVC016 08/05 A3007 RMK AO2 PWINO $=

SPECI PAKH 242352Z AUTO 26015G21KT BKN030 09/04 A3010 RMK AO2 PWINO
 $=

METAR PAKH 242356Z AUTO 26016G21KT BKN030 09/04 A3010 RMK AO2 SLP195
 T00890039 10089 20072 52009 PWINO $=

METAR PAKH 250056Z AUTO 26015KT FEW026 08/02 A3012 RMK AO2 SLP200
 T00830022 PWINO $=

SPECI PAKH 250149Z AUTO 26014KT BKN026 08/03 A3013 RMK AO2 PWINO $=

METAR PAKH 250156Z AUTO 24012KT SCT022 BKN026 08/03 A3013 RMK AO2
 SLP204 T00830033 PWINO $=

SPECI PAKH 250247Z AUTO 25016KT FEW015 SCT021 SCT039 08/04 A3013 RMK
 AO2 PWINO $=

METAR PAKH 250256Z AUTO 25013KT SCT017 SCT027 SCT032 08/04 A3013 RMK
 AO2 SLP205 T00780039 51010 PWINO $=


NOAA's National Weather Service
Alaska Aviation Weather Unit
6930 Sand Lake Road
Anchorage, AK 99502-1845
Disclaimer
Credits
Glossary
Privacy Policy
About Us
Career Opportunities
Contact AAWU Internet Services Site last modified: April, 17th 2012